Pagrindinis puslapis
METAR-TAF:

METAR-TAF

Oro uostai :

Pilot Point, Aliaska, Jungtinės Amerikos Valstijos

platuma: 57-34-49N, ilguma: 157-34-19W, Aukštis: 17 m

Dabartinis oras

Ataskaita buvo paskelbta 49 minutes, ne 19:07 UTC
Vėjas 4 kt iš Šiaurės Rytų
Temperatūra 1°C
Drėgmė 93%
Slėgis 1011 hPa
Matomumas: 12.9 km
Mažai debesys ne aukštis 2000 ft
Išsisklaidę debesys ne aukštis 2600 ft
Apsiniaukę ne aukštis 3500 ft
nežinomas

METAR: PAPN 281907Z AUTO 05004KT 8SM UP FEW020 SCT026 OVC035 01/00 A2985 RMK AO2 P0000 FZRANO

Laikas: 11:56 (19:56 UTC)


TAF: trūkstamas

Orai ataskaitas ir orų prognozės (METAR, TAF).

turimą stotys yra geltonos ir raudonos taškus žemėlapyje.

Perkelti pele per norėdami pamatyti stoties vardą.

Tada spustelėkite, norėdami matyti oro stebėjimo ir prognozės.

Norėdami pakeisti žemėlapį: spustelėkite ant žalios mygtukų su juodo kryžiaus žemyn,; žalią mygtuką su brūkšneliu, jei norite nutolinti; arba žalių rodyklių gretimoms žemėlapius.


METAR-TAF: